createdAt,value
2018-02-21T00:03:00.859Z,16.00
2018-02-21T00:13:03.594Z,15.90
2018-02-21T00:23:06.341Z,15.90
2018-02-21T00:33:09.839Z,15.80
2018-02-21T00:43:13.335Z,15.80
2018-02-21T00:53:16.067Z,15.80
2018-02-21T01:03:18.802Z,15.70
2018-02-21T01:13:21.540Z,15.60
2018-02-21T01:23:24.271Z,15.50
2018-02-21T01:33:27.008Z,15.50
2018-02-21T01:43:30.507Z,15.30
2018-02-21T01:53:33.469Z,15.30
2018-02-21T02:03:36.958Z,15.20
2018-02-21T02:13:39.686Z,15.20
2018-02-21T02:23:42.413Z,15.20
2018-02-21T02:44:11.818Z,15.10
2018-02-21T02:54:15.392Z,15.00
2018-02-21T03:04:18.250Z,15.00
2018-02-21T03:24:48.516Z,15.00
2018-02-21T03:34:51.369Z,15.00
2018-02-21T03:44:54.173Z,14.90
2018-02-21T03:54:57.033Z,14.90
2018-02-21T04:04:59.828Z,14.90
2018-02-21T04:15:02.628Z,14.80
2018-02-21T04:25:05.489Z,14.80
2018-02-21T04:35:08.365Z,14.80
2018-02-21T04:45:11.174Z,14.80
2018-02-21T04:55:30.476Z,14.70
2018-02-21T05:05:33.262Z,14.70
2018-02-21T05:15:36.067Z,14.70
2018-02-21T05:25:39.709Z,14.70
2018-02-21T05:35:42.510Z,14.70
2018-02-21T05:45:45.373Z,14.70
2018-02-21T05:55:48.187Z,14.60
2018-02-21T06:05:50.982Z,14.70
2018-02-21T06:15:53.864Z,14.70
2018-02-21T06:25:57.428Z,14.60
2018-02-21T06:36:00.292Z,14.60
2018-02-21T06:46:03.089Z,14.60
2018-02-21T06:56:05.877Z,14.60
2018-02-21T07:06:08.687Z,14.60
2018-02-21T22:27:27.812Z,18.40
2018-02-21T22:37:31.229Z,17.10
2018-02-21T22:47:34.711Z,16.30
2018-02-21T22:57:38.359Z,16.10
2018-02-21T23:07:41.848Z,16.00
2018-02-21T23:17:45.191Z,15.90
2018-02-21T23:27:48.549Z,15.80
2018-02-21T23:37:51.966Z,15.70
2018-02-21T23:47:55.318Z,15.70
2018-02-21T23:57:58.729Z,15.60
